Time;durP1;ratioP1;P1;durP2;ratioP2;P2;SDS_P1;SDS_P2;PMS_P1;PMS_P2;Temp;Humidity;BMP_temperature;BMP_pressure;BME280_temperature;BME280_humidity;BME280_pressure;Samples;Min_cycle;Max_cycle;Signal;HPM_P1;HPM_P2
2022/02/13 00:02:07;;;;;;;4.57;3.28;;;2.40;99.90;;;;;;5013813;28;20054;-87
2022/02/13 00:04:33;;;;;;;3.67;2.95;;;2.60;99.90;;;;;;4996933;28;20050;-90
2022/02/13 00:07:01;;;;;;;4.22;2.90;;;2.60;99.90;;;;;;5014866;28;20354;-88
2022/02/13 00:09:30;;;;;;;4.05;3.08;;;2.60;99.90;;;;;;5013607;28;20413;-90
2022/02/13 00:12:00;;;;;;;5.22;3.05;;;2.80;99.90;;;;;;5013463;28;20045;-88
2022/02/13 00:14:28;;;;;;;5.45;3.38;;;2.90;99.90;;;;;;4996872;28;20556;-88
2022/02/13 00:16:55;;;;;;;7.45;3.08;;;2.90;99.90;;;;;;5013516;28;20554;-88
2022/02/13 00:19:22;;;;;;;5.90;4.25;;;2.90;99.90;;;;;;5012842;28;20061;-89
2022/02/13 00:21:51;;;;;;;10.95;4.35;;;2.80;99.90;;;;;;5014596;28;20076;-88
2022/02/13 00:24:18;;;;;;;5.90;3.38;;;2.80;99.90;;;;;;5012982;28;20077;-88
2022/02/13 00:26:45;;;;;;;4.35;3.00;;;2.80;99.90;;;;;;5013158;28;20059;-89
2022/02/13 00:29:13;;;;;;;4.18;3.30;;;2.90;99.90;;;;;;5012950;28;20050;-86
2022/02/13 00:31:40;;;;;;;4.93;2.85;;;3.00;99.90;;;;;;5012852;28;20494;-88
2022/02/13 00:34:06;;;;;;;4.22;3.30;;;3.00;99.90;;;;;;5012625;28;20540;-88
2022/02/13 00:36:33;;;;;;;3.40;2.92;;;3.00;99.90;;;;;;5012951;28;20089;-90
2022/02/13 00:39:00;;;;;;;3.47;3.17;;;3.00;99.90;;;;;;5013100;28;20046;-88
2022/02/13 00:41:27;;;;;;;5.32;3.28;;;3.00;99.90;;;;;;5012964;28;20053;-90
2022/02/13 00:43:54;;;;;;;6.00;3.92;;;2.90;99.90;;;;;;5012835;28;20046;-87
2022/02/13 00:46:21;;;;;;;4.55;3.60;;;2.90;99.90;;;;;;5012890;28;20050;-87
2022/02/13 00:48:48;;;;;;;4.80;3.05;;;2.80;99.90;;;;;;4996636;28;20141;-86
2022/02/13 00:51:14;;;;;;;4.82;3.28;;;2.80;99.90;;;;;;5013717;28;20509;-86
2022/02/13 00:53:41;;;;;;;4.35;2.80;;;2.70;99.90;;;;;;5013203;28;20054;-86
2022/02/13 00:56:08;;;;;;;3.83;2.90;;;2.70;99.90;;;;;;5012840;28;20049;-86
2022/02/13 00:58:35;;;;;;;3.65;3.08;;;2.60;99.90;;;;;;5022386;28;20030;-86
2022/02/13 01:01:03;;;;;;;4.70;3.20;;;2.50;99.90;;;;;;5023088;28;20061;-87
2022/02/13 01:03:30;;;;;;;4.75;3.13;;;2.50;99.90;;;;;;5012850;28;20048;-86
2022/02/13 01:05:57;;;;;;;3.78;3.33;;;2.40;99.90;;;;;;4996960;28;20061;-87
2022/02/13 01:08:24;;;;;;;6.18;3.38;;;2.40;99.90;;;;;;4996426;28;20050;-87
2022/02/13 01:10:50;;;;;;;3.90;2.75;;;2.30;99.90;;;;;;5012263;28;20558;-86
2022/02/13 01:13:17;;;;;;;5.88;3.40;;;2.30;99.90;;;;;;5012512;28;20132;-86
2022/02/13 01:15:44;;;;;;;3.88;3.17;;;2.10;99.90;;;;;;5012639;28;20065;-86
2022/02/13 01:18:12;;;;;;;5.30;3.30;;;2.10;99.90;;;;;;5012116;28;20516;-86
2022/02/13 01:20:40;;;;;;;4.13;3.10;;;1.90;99.90;;;;;;5014028;28;20077;-86
2022/02/13 01:23:07;;;;;;;4.90;3.15;;;1.80;99.90;;;;;;5012671;28;20045;-86
2022/02/13 01:25:35;;;;;;;5.32;4.25;;;1.70;99.90;;;;;;4996122;28;20083;-86
2022/02/13 01:28:03;;;;;;;6.20;3.50;;;1.70;99.90;;;;;;5012269;28;20111;-86
2022/02/13 01:30:29;;;;;;;8.73;3.65;;;1.60;99.90;;;;;;5012311;28;20053;-86
2022/02/13 01:32:56;;;;;;;5.47;3.33;;;1.60;99.90;;;;;;5012321;28;20483;-87
2022/02/13 01:35:23;;;;;;;4.05;3.42;;;1.60;99.90;;;;;;5012350;28;20046;-86
2022/02/13 01:37:49;;;;;;;4.93;3.25;;;1.60;99.90;;;;;;5012219;28;20050;-86
2022/02/13 01:40:16;;;;;;;8.65;3.40;;;1.60;99.90;;;;;;5012791;28;20506;-86
2022/02/13 01:42:43;;;;;;;8.43;3.80;;;1.50;99.90;;;;;;5012215;28;20046;-86
2022/02/13 01:45:11;;;;;;;5.53;3.50;;;1.40;99.90;;;;;;5011921;28;20089;-86
2022/02/13 01:47:38;;;;;;;5.30;3.83;;;1.30;99.90;;;;;;5013283;28;20513;-86
2022/02/13 01:50:08;;;;;;;6.03;3.75;;;1.30;99.90;;;;;;5012208;28;20483;-86
2022/02/13 01:52:37;;;;;;;4.20;3.28;;;1.40;99.90;;;;;;5012563;28;20403;-86
2022/02/13 01:55:05;;;;;;;7.32;2.90;;;1.40;99.90;;;;;;5015644;28;20132;-86
2022/02/13 01:57:32;;;;;;;3.67;3.38;;;1.40;99.90;;;;;;5017120;28;20056;-86
2022/02/13 01:59:59;;;;;;;9.45;4.05;;;1.40;99.90;;;;;;5016113;28;20054;-87
2022/02/13 02:02:26;;;;;;;4.18;3.58;;;1.30;99.90;;;;;;5017133;28;20504;-86
2022/02/13 02:04:54;;;;;;;6.00;3.70;;;1.20;99.90;;;;;;5015671;28;20050;-86
2022/02/13 02:07:21;;;;;;;4.75;3.45;;;1.20;99.90;;;;;;5016960;28;20391;-88
2022/02/13 02:09:51;;;;;;;5.15;3.65;;;1.30;99.90;;;;;;5016176;28;20049;-86
2022/02/13 02:12:19;;;;;;;4.32;3.40;;;1.40;99.90;;;;;;5009413;28;20101;-87
2022/02/13 02:14:46;;;;;;;5.20;2.88;;;1.50;99.90;;;;;;5026084;28;20136;-86
2022/02/13 02:17:12;;;;;;;3.90;3.42;;;1.50;99.90;;;;;;5015999;28;20137;-86
2022/02/13 02:19:39;;;;;;;4.80;3.17;;;1.60;99.90;;;;;;5016387;28;20065;-86
2022/02/13 02:22:08;;;;;;;5.18;3.65;;;1.50;99.90;;;;;;5015507;28;20054;-88
2022/02/13 02:24:35;;;;;;;7.30;3.55;;;1.50;99.90;;;;;;5015576;28;20470;-87
2022/02/13 02:27:03;;;;;;;5.57;3.38;;;1.40;99.90;;;;;;4999421;28;20478;-87
2022/02/13 02:29:32;;;;;;;5.00;4.07;;;1.40;99.90;;;;;;5015629;28;20133;-88
2022/02/13 02:32:00;;;;;;;4.25;3.47;;;1.30;99.90;;;;;;5015584;28;20054;-86
2022/02/13 02:34:26;;;;;;;5.15;3.60;;;1.30;99.90;;;;;;5015543;28;20509;-87
2022/02/13 02:36:53;;;;;;;4.63;3.72;;;1.30;99.90;;;;;;5015392;28;20049;-86
2022/02/13 02:39:20;;;;;;;6.13;4.10;;;1.40;99.90;;;;;;5015400;28;20133;-86
2022/02/13 02:41:49;;;;;;;4.32;3.80;;;1.40;99.90;;;;;;5016487;28;20181;-87
2022/02/13 02:44:15;;;;;;;5.97;3.85;;;1.30;99.90;;;;;;5016164;28;20096;-88
2022/02/13 02:46:42;;;;;;;6.82;3.78;;;1.20;99.90;;;;;;5015794;28;20557;-87
2022/02/13 02:49:09;;;;;;;5.30;3.67;;;1.20;99.90;;;;;;5015136;28;20057;-87
2022/02/13 02:51:36;;;;;;;5.10;3.70;;;1.10;99.90;;;;;;5015195;28;20128;-87
2022/02/13 02:54:03;;;;;;;7.32;3.88;;;1.10;99.90;;;;;;4998629;28;20050;-87
2022/02/13 02:56:29;;;;;;;4.85;3.67;;;1.10;99.90;;;;;;5016111;28;20049;-87
2022/02/13 02:58:56;;;;;;;6.32;4.00;;;1.00;99.90;;;;;;5015688;28;20508;-86
2022/02/13 03:01:23;;;;;;;4.68;4.07;;;0.90;99.90;;;;;;5015807;28;20085;-86
2022/02/13 03:03:50;;;;;;;6.85;3.92;;;0.90;99.90;;;;;;5015614;28;20046;-87
2022/02/13 03:06:17;;;;;;;5.38;3.92;;;0.90;99.90;;;;;;5013662;28;20050;-86
2022/02/13 03:08:43;;;;;;;6.47;4.22;;;0.90;99.90;;;;;;5014523;28;20052;-87
2022/02/13 03:11:10;;;;;;;7.18;4.45;;;0.80;99.90;;;;;;5014514;28;20501;-88
2022/02/13 03:13:37;;;;;;;4.85;4.35;;;0.80;99.90;;;;;;5014248;28;20050;-85
2022/02/13 03:16:04;;;;;;;4.53;3.42;;;0.90;99.90;;;;;;5014315;28;20049;-86
2022/02/13 03:18:31;;;;;;;9.32;4.25;;;0.90;99.90;;;;;;5014421;28;20050;-87
2022/02/13 03:21:00;;;;;;;9.98;3.80;;;0.90;99.90;;;;;;4998336;28;20188;-87
2022/02/13 03:23:27;;;;;;;7.80;4.57;;;0.90;99.90;;;;;;5015754;28;20054;-86
2022/02/13 03:25:54;;;;;;;7.00;4.60;;;0.90;99.90;;;;;;5023143;28;20026;-89
2022/02/13 03:28:21;;;;;;;8.40;4.25;;;0.90;99.90;;;;;;5025167;28;20081;-89
2022/02/13 03:30:48;;;;;;;7.20;4.60;;;0.90;99.90;;;;;;5014581;28;20057;-87
2022/02/13 03:33:15;;;;;;;7.93;4.57;;;0.90;99.90;;;;;;5015227;28;20050;-87
2022/02/13 03:35:42;;;;;;;5.65;4.07;;;0.90;99.90;;;;;;5014155;28;20054;-88
2022/02/13 03:38:09;;;;;;;7.93;4.25;;;1.00;99.90;;;;;;4997754;28;20049;-86
2022/02/13 03:40:36;;;;;;;9.32;4.38;;;1.00;99.90;;;;;;5014060;28;20124;-87
2022/02/13 03:43:05;;;;;;;7.22;4.68;;;1.00;99.90;;;;;;5014073;28;20501;-87
2022/02/13 03:45:33;;;;;;;7.32;4.30;;;1.00;99.90;;;;;;5014142;28;20081;-87
2022/02/13 03:48:00;;;;;;;6.10;4.35;;;0.90;99.90;;;;;;5015087;28;20054;-88
2022/02/13 03:50:28;;;;;;;7.78;4.38;;;0.90;99.90;;;;;;5013838;28;20494;-87
2022/02/13 03:52:58;;;;;;;5.43;4.18;;;0.90;99.90;;;;;;4998268;28;20073;-87
2022/02/13 03:55:24;;;;;;;5.60;3.95;;;0.90;99.90;;;;;;5013166;28;20072;-87
2022/02/13 03:57:51;;;;;;;6.57;4.88;;;0.80;99.90;;;;;;5014965;28;20486;-90
2022/02/13 04:00:18;;;;;;;8.25;4.78;;;0.70;99.90;;;;;;5013376;28;20060;-86
2022/02/13 04:02:45;;;;;;;7.63;4.25;;;0.70;99.90;;;;;;5013401;28;20060;-87
2022/02/13 04:05:12;;;;;;;7.38;4.65;;;0.70;99.90;;;;;;5014734;28;20100;-86
2022/02/13 04:07:41;;;;;;;6.82;4.43;;;0.60;99.90;;;;;;5013585;28;20133;-87
2022/02/13 04:10:08;;;;;;;7.47;4.53;;;0.50;99.90;;;;;;5014266;28;20042;-87
2022/02/13 04:12:35;;;;;;;9.07;4.45;;;0.50;99.90;;;;;;4997417;28;20050;-87
2022/02/13 04:15:03;;;;;;;7.30;4.65;;;0.50;99.90;;;;;;5013081;28;20085;-86
2022/02/13 04:17:30;;;;;;;5.00;4.53;;;0.50;99.90;;;;;;5012206;28;20054;-86
2022/02/13 04:19:57;;;;;;;9.30;4.93;;;0.40;99.90;;;;;;5014630;28;20050;-88
2022/02/13 04:22:23;;;;;;;6.68;4.97;;;0.30;99.90;;;;;;5013289;28;20420;-87
2022/02/13 04:24:50;;;;;;;6.28;4.63;;;0.30;99.90;;;;;;5013903;28;20058;-87
2022/02/13 04:27:18;;;;;;;6.30;4.60;;;0.30;99.90;;;;;;5012437;28;20510;-87
2022/02/13 04:29:45;;;;;;;9.55;5.45;;;0.40;99.90;;;;;;5012927;28;20564;-85
2022/02/13 04:32:12;;;;;;;8.45;5.00;;;0.50;99.90;;;;;;5013152;28;20133;-87
2022/02/13 04:34:40;;;;;;;5.80;5.05;;;0.40;99.90;;;;;;5013211;28;20517;-87
2022/02/13 04:37:07;;;;;;;6.40;4.90;;;0.30;99.90;;;;;;5013933;28;20054;-87
2022/02/13 04:39:34;;;;;;;10.77;5.97;;;0.40;99.90;;;;;;5023385;28;20040;-88
2022/02/13 04:42:01;;;;;;;7.68;5.20;;;0.40;99.90;;;;;;5023118;28;20081;-86
2022/02/13 04:44:27;;;;;;;8.43;4.55;;;0.30;99.90;;;;;;5014236;28;20056;-85
2022/02/13 04:46:54;;;;;;;6.88;5.28;;;0.20;99.90;;;;;;5012352;28;20096;-87
2022/02/13 04:49:21;;;;;;;6.28;4.68;;;0.10;99.90;;;;;;5012741;28;20052;-86
2022/02/13 04:51:48;;;;;;;6.15;5.10;;;-0.10;99.90;;;;;;4996407;28;20418;-86
2022/02/13 04:54:15;;;;;;;8.07;5.28;;;-0.20;99.90;;;;;;5012679;28;20053;-86
2022/02/13 04:56:41;;;;;;;11.63;8.35;;;-0.30;99.90;;;;;;5012685;28;20053;-88
2022/02/13 04:59:09;;;;;;;9.95;6.50;;;-0.30;99.90;;;;;;5012803;28;20045;-87
2022/02/13 05:01:36;;;;;;;7.43;5.80;;;-0.20;99.90;;;;;;5012591;28;20064;-86
2022/02/13 05:04:03;;;;;;;11.27;5.72;;;-0.20;99.90;;;;;;5012488;28;20128;-88
2022/02/13 05:06:30;;;;;;;6.80;5.40;;;-0.10;99.90;;;;;;5012504;28;20077;-87
2022/02/13 05:08:57;;;;;;;7.88;6.07;;;-0.10;99.90;;;;;;5012647;28;20049;-87
2022/02/13 05:11:26;;;;;;;8.35;5.82;;;-0.10;99.90;;;;;;4996346;28;20132;-87
2022/02/13 05:13:54;;;;;;;8.75;5.90;;;0.00;99.90;;;;;;5012462;28;20062;-87
2022/02/13 05:16:21;;;;;;;9.35;6.03;;;0.00;99.90;;;;;;5012595;28;20402;-86
2022/02/13 05:18:47;;;;;;;9.93;6.20;;;0.00;99.90;;;;;;5011782;28;20084;-87
2022/02/13 05:21:14;;;;;;;9.00;6.45;;;-0.10;99.90;;;;;;5012370;28;20410;-87
2022/02/13 05:23:41;;;;;;;8.30;5.85;;;-0.10;99.90;;;;;;5013533;28;20041;-87
2022/02/13 05:26:10;;;;;;;8.73;5.63;;;-0.20;99.90;;;;;;5011971;28;20045;-87
2022/02/13 05:28:36;;;;;;;9.38;5.55;;;-0.10;99.90;;;;;;5012090;28;20402;-86
2022/02/13 05:31:03;;;;;;;11.40;6.32;;;-0.30;99.90;;;;;;5012111;28;20053;-87
2022/02/13 05:33:30;;;;;;;8.98;5.85;;;-0.30;99.90;;;;;;5012238;28;20077;-87
2022/02/13 05:35:56;;;;;;;9.68;6.72;;;-0.40;99.90;;;;;;5012153;28;20260;-88
2022/02/13 05:38:23;;;;;;;8.10;6.25;;;-0.30;99.90;;;;;;5012164;28;20046;-88
2022/02/13 05:40:50;;;;;;;7.55;6.07;;;-0.30;99.90;;;;;;5012400;28;20057;-87
2022/02/13 05:43:17;;;;;;;9.88;6.55;;;-0.20;99.90;;;;;;5013176;28;20045;-88
2022/02/13 05:45:44;;;;;;;10.55;6.15;;;-0.10;99.90;;;;;;5011919;28;20046;-86
2022/02/13 05:48:14;;;;;;;9.32;6.22;;;-0.10;99.90;;;;;;5011946;28;20064;-87
2022/02/13 05:50:42;;;;;;;11.35;6.40;;;-0.20;99.90;;;;;;5012315;28;20406;-87
2022/02/13 05:53:09;;;;;;;13.60;7.35;;;-0.30;99.90;;;;;;5020588;28;20116;-87
2022/02/13 05:55:36;;;;;;;8.82;6.20;;;-0.20;99.90;;;;;;5022494;28;20128;-86
2022/02/13 05:58:03;;;;;;;9.40;6.53;;;-0.40;99.90;;;;;;5012285;28;20157;-86
2022/02/13 06:00:30;;;;;;;11.60;6.72;;;-0.60;99.90;;;;;;5011876;28;20505;-86
2022/02/13 06:02:57;;;;;;;13.88;6.85;;;-0.70;99.90;;;;;;5012094;28;20141;-87
2022/02/13 06:05:23;;;;;;;12.57;6.43;;;-0.80;99.90;;;;;;5011865;28;20562;-86
2022/02/13 06:07:50;;;;;;;9.93;6.85;;;-0.90;99.90;;;;;;5011854;28;20060;-87
2022/02/13 06:10:17;;;;;;;7.28;6.10;;;-1.10;99.90;;;;;;5012115;28;20050;-87
2022/02/13 06:12:44;;;;;;;10.50;7.10;;;-1.20;99.90;;;;;;5012264;28;20050;-88
2022/02/13 06:15:12;;;;;;;11.88;6.57;;;-1.20;99.90;;;;;;5011931;28;20057;-87
2022/02/13 06:17:39;;;;;;;7.85;5.90;;;-1.30;99.90;;;;;;5012027;28;20049;-88
2022/02/13 06:20:06;;;;;;;9.55;6.38;;;-1.50;99.90;;;;;;5011867;28;20060;-88
2022/02/13 06:22:33;;;;;;;10.30;7.30;;;-1.70;99.90;;;;;;5011854;28;20387;-88
2022/02/13 06:25:00;;;;;;;11.73;7.88;;;-1.80;99.90;;;;;;5011728;28;20046;-89
2022/02/13 06:27:26;;;;;;;12.63;7.28;;;-1.80;99.90;;;;;;5012817;28;20052;-89
2022/02/13 06:29:53;;;;;;;14.20;7.43;;;-2.00;99.90;;;;;;4995651;28;20455;-89
2022/02/13 06:32:20;;;;;;;11.85;7.20;;;-2.10;99.90;;;;;;5011870;28;20069;-89
2022/02/13 06:34:47;;;;;;;11.60;7.18;;;-2.20;99.90;;;;;;5011808;28;20052;-90
2022/02/13 06:37:13;;;;;;;10.77;7.40;;;-2.30;99.90;;;;;;5012194;28;20076;-91
2022/02/13 06:39:40;;;;;;;14.75;6.88;;;-2.40;99.90;;;;;;5012251;28;20145;-90
2022/02/13 06:42:07;;;;;;;9.65;6.95;;;-2.50;99.90;;;;;;5015258;28;20153;-90
2022/02/13 06:44:34;;;;;;;13.25;7.22;;;-2.60;99.90;;;;;;5016541;28;20084;-89
2022/02/13 06:47:01;;;;;;;12.48;8.45;;;-2.60;99.90;;;;;;5015391;28;20053;-90
2022/02/13 06:49:27;;;;;;;18.00;6.88;;;-2.70;99.90;;;;;;5015326;28;20080;-90
2022/02/13 06:51:54;;;;;;;14.60;8.27;;;-2.60;99.90;;;;;;4999448;28;20141;-91
2022/02/13 06:54:21;;;;;;;19.00;9.07;;;-2.70;99.90;;;;;;5015488;28;20050;-91
2022/02/13 06:56:48;;;;;;;24.40;9.95;;;-2.70;99.90;;;;;;5015356;28;20054;-91
2022/02/13 06:59:15;;;;;;;19.50;10.23;;;-2.70;99.90;;;;;;5015144;28;20054;-91
2022/02/13 07:01:42;;;;;;;23.30;9.93;;;-2.70;99.90;;;;;;5015337;28;20125;-91
2022/02/13 07:04:09;;;;;;;64.50;30.10;;;-2.70;99.90;;;;;;5015476;28;20046;-90
2022/02/13 07:06:36;;;;;;;22.23;10.77;;;-2.60;99.90;;;;;;5016798;28;20062;-91
2022/02/13 07:09:04;;;;;;;16.60;10.20;;;-2.50;99.90;;;;;;5033015;28;20101;-90
2022/02/13 07:11:31;;;;;;;18.88;10.48;;;-2.40;99.90;;;;;;5031069;28;20145;-91
2022/02/13 07:13:58;;;;;;;37.28;19.88;;;-2.50;99.90;;;;;;5014610;28;20129;-91
2022/02/13 07:16:25;;;;;;;19.88;11.23;;;-2.50;99.90;;;;;;5014830;28;20056;-91
2022/02/13 07:18:52;;;;;;;21.92;11.70;;;-2.50;99.90;;;;;;5014263;28;20092;-91
2022/02/13 07:21:19;;;;;;;19.05;11.45;;;-2.50;99.90;;;;;;5014766;28;20136;-91
2022/02/13 07:23:46;;;;;;;16.05;11.10;;;-2.50;99.90;;;;;;5015468;28;20055;-91
2022/02/13 07:26:13;;;;;;;19.30;11.70;;;-2.40;99.90;;;;;;5014280;28;20046;-91
2022/02/13 07:31:25;;;;;;;19.40;10.55;;;-2.40;99.90;;;;;;5014613;28;20048;-91
2022/02/13 07:33:52;;;;;;;18.30;11.38;;;-2.30;99.90;;;;;;5014615;28;20125;-91
2022/02/13 07:36:19;;;;;;;18.73;10.02;;;-2.10;99.90;;;;;;5014661;28;20477;-91
2022/02/13 07:38:45;;;;;;;15.57;9.80;;;-2.10;99.90;;;;;;5014153;28;20490;-91
2022/02/13 07:41:12;;;;;;;20.35;9.73;;;-2.10;99.90;;;;;;5014449;28;20490;-92
2022/02/13 07:43:39;;;;;;;19.40;9.30;;;-2.10;99.90;;;;;;5014503;28;20405;-91
2022/02/13 07:46:05;;;;;;;13.20;8.88;;;-1.90;99.90;;;;;;5014278;28;20054;-91
2022/02/13 07:48:33;;;;;;;15.35;10.32;;;-1.70;99.90;;;;;;5014280;28;20140;-92
2022/02/13 07:51:00;;;;;;;13.85;8.68;;;-1.70;99.90;;;;;;5014130;28;20045;-91
2022/02/13 07:53:27;;;;;;;13.77;8.52;;;-1.60;99.90;;;;;;5014490;28;20056;-92
2022/02/13 07:55:53;;;;;;;10.25;7.22;;;-1.30;99.90;;;;;;5014067;28;20042;-91
2022/02/13 07:58:20;;;;;;;8.00;5.70;;;-0.90;99.90;;;;;;5014162;28;20141;-92
2022/02/13 08:00:48;;;;;;;9.65;5.93;;;-0.40;99.90;;;;;;5014231;28;20056;-90
2022/02/13 08:03:15;;;;;;;6.85;5.45;;;0.10;99.90;;;;;;5014910;28;20072;-91
2022/02/13 08:05:42;;;;;;;10.57;5.55;;;0.50;99.90;;;;;;5016597;28;20080;-90
2022/02/13 08:08:08;;;;;;;8.45;5.43;;;0.90;99.90;;;;;;5015782;28;20056;-89
2022/02/13 08:10:39;;;;;;;6.47;4.30;;;1.20;99.90;;;;;;5015041;28;20107;-89
2022/02/13 08:13:06;;;;;;;7.43;4.85;;;1.50;99.90;;;;;;5013922;28;20057;-92
2022/02/13 08:15:33;;;;;;;7.45;4.90;;;1.70;99.90;;;;;;5013520;28;20085;-88
2022/02/13 08:18:07;;;;;;;8.35;5.35;;;1.90;99.90;;;;;;5013772;28;20072;-88
2022/02/13 08:20:34;;;;;;;8.02;5.53;;;1.90;99.90;;;;;;5015800;28;20050;-88
2022/02/13 08:23:01;;;;;;;7.80;5.15;;;2.00;99.90;;;;;;5027561;28;20106;-89
2022/02/13 08:25:28;;;;;;;10.52;5.40;;;2.10;99.90;;;;;;5019209;28;20049;-89
2022/02/13 08:27:55;;;;;;;9.30;5.25;;;2.10;99.90;;;;;;5014407;28;20060;-89
2022/02/13 08:30:22;;;;;;;9.30;5.00;;;2.30;99.90;;;;;;5013865;28;20519;-89
2022/02/13 08:32:50;;;;;;;5.75;4.30;;;2.40;99.90;;;;;;5013214;28;20140;-88
2022/02/13 08:35:16;;;;;;;6.65;5.03;;;2.70;99.90;;;;;;5013019;28;20050;-89
2022/02/13 08:37:44;;;;;;;7.07;4.60;;;3.30;99.90;;;;;;5013224;28;20080;-88
2022/02/13 08:40:11;;;;;;;4.93;4.18;;;4.40;99.90;;;;;;5014183;28;20050;-89
2022/02/13 08:42:38;;;;;;;5.53;3.75;;;5.40;99.90;;;;;;5012771;28;20362;-88
2022/02/13 08:45:05;;;;;;;5.82;4.40;;;6.20;99.90;;;;;;5013980;28;20498;-89
2022/02/13 08:47:32;;;;;;;5.22;4.38;;;6.80;99.90;;;;;;5012939;28;20053;-88
2022/02/13 08:49:58;;;;;;;5.35;3.47;;;7.20;99.90;;;;;;5013729;28;20046;-89
2022/02/13 08:52:25;;;;;;;5.75;3.70;;;7.90;97.30;;;;;;5015837;28;20081;-91
2022/02/13 08:54:52;;;;;;;4.32;3.78;;;8.10;95.60;;;;;;5016555;28;20052;-90
2022/02/13 08:57:19;;;;;;;4.10;3.35;;;8.00;95.10;;;;;;5016372;28;20091;-89
2022/02/13 08:59:45;;;;;;;9.38;4.40;;;8.00;95.00;;;;;;5016064;28;20042;-90
2022/02/13 09:02:12;;;;;;;6.53;4.22;;;8.20;94.40;;;;;;5013855;28;20056;-88
2022/02/13 09:04:39;;;;;;;4.43;3.63;;;8.60;93.80;;;;;;5015075;28;20479;-87
2022/02/13 09:07:05;;;;;;;5.50;3.75;;;8.90;92.50;;;;;;5015612;28;20063;-89
2022/02/13 09:09:32;;;;;;;5.13;3.35;;;9.30;91.30;;;;;;5033333;28;20482;-88
2022/02/13 09:11:59;;;;;;;4.50;3.42;;;9.50;90.10;;;;;;5016352;28;20081;-89
2022/02/13 09:14:26;;;;;;;5.25;3.58;;;9.30;88.80;;;;;;5033364;28;20482;-88
2022/02/13 09:16:53;;;;;;;7.07;3.70;;;9.40;88.90;;;;;;5015773;28;20048;-88
2022/02/13 09:19:20;;;;;;;5.35;3.70;;;9.70;88.60;;;;;;5015479;28;20057;-90
2022/02/13 09:21:52;;;;;;;4.60;3.22;;;10.00;86.30;;;;;;5016085;28;20504;-89
2022/02/13 09:24:19;;;;;;;5.78;3.90;;;9.70;85.60;;;;;;5016214;28;20457;-88
2022/02/13 09:26:46;;;;;;;8.98;3.85;;;9.40;87.50;;;;;;5015997;28;20060;-88
2022/02/13 09:29:13;;;;;;;5.32;3.50;;;9.60;88.00;;;;;;5032631;28;20056;-87
2022/02/13 09:31:40;;;;;;;4.97;3.38;;;10.70;86.00;;;;;;5015855;28;20057;-89
2022/02/13 09:34:07;;;;;;;6.60;3.40;;;11.30;82.50;;;;;;5033567;28;20569;-88
2022/02/13 09:36:34;;;;;;;4.78;3.00;;;11.70;80.50;;;;;;5025265;28;20105;-88
2022/02/13 09:39:00;;;;;;;5.28;3.50;;;12.00;78.10;;;;;;5027571;28;20046;-88
2022/02/13 09:41:28;;;;;;;4.70;3.15;;;12.10;78.00;;;;;;5016013;28;20049;-87
2022/02/13 09:43:56;;;;;;;5.03;3.17;;;12.20;78.10;;;;;;5015759;28;20490;-91
2022/02/13 09:46:26;;;;;;;5.53;3.35;;;12.00;77.70;;;;;;5015680;28;20107;-87
2022/02/13 09:48:55;;;;;;;4.43;3.83;;;12.00;76.70;;;;;;5015336;28;20053;-88
2022/02/13 09:51:22;;;;;;;6.40;3.97;;;12.30;77.00;;;;;;5012889;28;20719;-87
2022/02/13 09:53:49;;;;;;;5.25;3.35;;;12.30;75.80;;;;;;5011838;28;20388;-87
2022/02/13 09:56:17;;;;;;;4.68;3.28;;;12.50;74.70;;;;;;5012215;28;20368;-88
2022/02/13 09:58:44;;;;;;;4.60;3.20;;;12.90;73.90;;;;;;5012976;28;20082;-88
2022/02/13 10:01:11;;;;;;;7.10;3.13;;;12.70;72.70;;;;;;5012894;28;20089;-87
2022/02/13 10:03:41;;;;;;;5.93;3.28;;;13.30;73.90;;;;;;5011679;28;20411;-86
2022/02/13 10:06:11;;;;;;;5.07;3.00;;;13.60;70.60;;;;;;5012163;28;20128;-88
2022/02/13 10:08:41;;;;;;;5.40;2.97;;;13.50;70.40;;;;;;5011941;28;20089;-88
2022/02/13 10:11:18;;;;;;;4.57;3.47;;;13.90;69.90;;;;;;4995575;28;20129;-87
2022/02/13 10:14:00;;;;;;;5.82;3.10;;;13.80;69.30;;;;;;4996455;28;20061;-85
2022/02/13 10:16:29;;;;;;;6.10;3.08;;;14.50;69.30;;;;;;5014823;28;20077;-87
2022/02/13 10:18:57;;;;;;;3.65;2.95;;;15.30;66.30;;;;;;5015206;28;20064;-87
2022/02/13 10:21:44;;;;;;;7.55;3.10;;;14.80;64.60;;;;;;5016647;28;20577;-85
2022/02/13 10:24:11;;;;;;;4.68;3.10;;;15.60;64.70;;;;;;5015513;28;20677;-88
2022/02/13 10:26:38;;;;;;;5.50;3.40;;;15.50;63.50;;;;;;4998961;28;20069;-86
2022/02/13 10:29:05;;;;;;;6.20;3.47;;;15.60;64.30;;;;;;5016636;28;20049;-86
2022/02/13 10:31:31;;;;;;;4.88;3.08;;;16.10;63.70;;;;;;5015015;28;20046;-86
2022/02/13 10:34:01;;;;;;;4.57;3.20;;;16.70;62.10;;;;;;5014880;28;20049;-86
2022/02/13 10:36:29;;;;;;;9.95;2.95;;;16.90;60.10;;;;;;5018113;28;20045;-85
2022/02/13 10:38:55;;;;;;;3.63;2.88;;;17.30;59.80;;;;;;5016264;28;20054;-87
2022/02/13 10:41:27;;;;;;;6.25;3.05;;;17.50;59.00;;;;;;5016783;28;20090;-85
2022/02/13 10:43:59;;;;;;;7.97;3.53;;;17.50;58.50;;;;;;5015508;28;20044;-86
2022/02/13 10:46:32;;;;;;;4.53;3.00;;;17.70;58.10;;;;;;5024237;28;20073;-85
2022/02/13 10:49:00;;;;;;;6.18;2.80;;;17.90;58.70;;;;;;5013205;28;20046;-85
2022/02/13 10:51:26;;;;;;;8.48;2.90;;;18.20;57.90;;;;;;5030773;28;20030;-86
2022/02/13 10:53:54;;;;;;;5.13;3.28;;;17.60;57.40;;;;;;5019095;28;20473;-85
2022/02/13 10:56:22;;;;;;;7.10;3.15;;;17.60;58.00;;;;;;5016879;28;20050;-85
2022/02/13 10:58:55;;;;;;;3.88;2.90;;;17.00;58.10;;;;;;5016295;28;20052;-86
2022/02/13 11:01:23;;;;;;;5.10;3.53;;;16.70;58.90;;;;;;5018410;28;20076;-87
2022/02/13 11:03:52;;;;;;;6.95;3.38;;;16.30;60.00;;;;;;5018554;28;20049;-89
2022/02/13 11:06:19;;;;;;;6.38;3.15;;;16.10;61.30;;;;;;5017655;28;20482;-87
2022/02/13 11:09:15;;;;;;;7.10;3.47;;;15.30;62.60;;;;;;5015674;28;20119;-86
2022/02/13 11:11:45;;;;;;;4.93;3.38;;;15.70;63.40;;;;;;4978322;28;20593;-86
2022/02/13 11:14:36;;;;;;;8.55;3.17;;;16.50;61.70;;;;;;4994330;28;20081;-86
2022/02/13 11:17:04;;;;;;;5.82;3.40;;;16.60;61.30;;;;;;4995316;28;20112;-85
2022/02/13 11:19:33;;;;;;;6.05;3.58;;;16.70;59.80;;;;;;4995163;28;20065;-88
2022/02/13 11:22:02;;;;;;;12.35;3.40;;;16.70;59.70;;;;;;4995265;28;20522;-86
2022/02/13 11:24:36;;;;;;;5.28;3.30;;;15.50;61.70;;;;;;4994455;28;20042;-86
2022/02/13 11:27:05;;;;;;;8.38;4.30;;;15.10;63.00;;;;;;4978625;28;20085;-86
2022/02/13 11:29:50;;;;;;;7.68;3.63;;;15.90;62.90;;;;;;4995084;28;20050;-86
2022/02/13 11:32:36;;;;;;;5.63;3.92;;;15.50;62.90;;;;;;5013217;28;20042;-86
2022/02/13 11:35:05;;;;;;;7.65;3.65;;;15.40;64.40;;;;;;5006061;28;20409;-86
2022/02/13 11:37:44;;;;;;;5.03;3.70;;;15.70;63.40;;;;;;5014538;28;20054;-85
2022/02/13 11:40:33;;;;;;;9.57;4.20;;;15.70;62.80;;;;;;5022914;28;20060;-84
2022/02/13 11:43:01;;;;;;;6.47;3.83;;;14.80;63.80;;;;;;5014183;28;20125;-87
2022/02/13 11:45:41;;;;;;;9.35;4.00;;;15.00;65.40;;;;;;5015416;28;20050;-86
2022/02/13 11:48:33;;;;;;;6.75;3.78;;;14.90;66.00;;;;;;5014220;28;20050;-86
2022/02/13 11:51:00;;;;;;;7.22;3.78;;;14.50;66.30;;;;;;5014077;28;20100;-87
2022/02/13 11:53:29;;;;;;;8.10;4.07;;;15.10;67.80;;;;;;5014448;28;20049;-89
2022/02/13 11:56:18;;;;;;;7.43;4.00;;;14.60;66.10;;;;;;5013778;28;20137;-88
2022/02/13 11:58:45;;;;;;;7.78;3.70;;;14.00;68.00;;;;;;5015268;28;20046;-89
2022/02/13 12:01:42;;;;;;;8.57;4.18;;;13.90;69.70;;;;;;5014041;28;20049;-87
2022/02/13 12:04:10;;;;;;;8.93;4.20;;;14.10;69.60;;;;;;5016189;28;20107;-88
2022/02/13 12:06:37;;;;;;;8.25;3.88;;;14.10;68.70;;;;;;5037954;28;20105;-87
2022/02/13 12:09:06;;;;;;;7.15;3.97;;;14.60;70.10;;;;;;5016515;28;20410;-86
2022/02/13 12:11:41;;;;;;;6.57;3.45;;;15.30;68.00;;;;;;5026097;28;20050;-84
2022/02/13 12:14:16;;;;;;;6.10;3.53;;;15.90;66.70;;;;;;5013291;28;20509;-87
2022/02/13 12:16:58;;;;;;;5.15;3.88;;;16.10;64.00;;;;;;5016042;28;20049;-87
2022/02/13 12:19:26;;;;;;;7.50;3.53;;;15.80;65.50;;;;;;5016800;28;20136;-87
2022/02/13 12:22:16;;;;;;;11.40;4.40;;;15.00;66.70;;;;;;5036229;28;20055;-86
2022/02/13 12:24:44;;;;;;;7.68;4.32;;;14.80;68.20;;;;;;5016428;28;20129;-86
2022/02/13 12:27:12;;;;;;;6.28;3.72;;;14.90;67.80;;;;;;5016253;28;20088;-86
2022/02/13 12:29:50;;;;;;;9.35;3.88;;;15.40;67.90;;;;;;5016551;28;20059;-85
2022/02/13 12:32:18;;;;;;;7.68;3.55;;;15.70;67.30;;;;;;5016428;28;20055;-85
2022/02/13 12:34:53;;;;;;;4.60;3.55;;;15.50;66.00;;;;;;5034778;28;20059;-86
2022/02/13 12:37:31;;;;;;;4.10;3.53;;;14.50;68.60;;;;;;5015938;28;20045;-85
2022/02/13 12:39:58;;;;;;;8.68;4.18;;;14.20;69.80;;;;;;5015651;28;20049;-86
2022/02/13 12:42:34;;;;;;;8.55;4.60;;;13.90;69.70;;;;;;5016181;28;20041;-85
2022/02/13 12:45:08;;;;;;;6.25;3.85;;;13.60;71.70;;;;;;5016094;28;20092;-85
2022/02/13 12:47:36;;;;;;;;;;;13.60;73.00;;;;;;5016115;28;20490;-86
2022/02/13 12:50:09;;;;;;;8.05;3.90;;;13.40;72.60;;;;;;5033349;28;19925;-86
2022/02/13 12:52:36;;;;;;;5.85;3.55;;;13.00;73.40;;;;;;5015982;28;20057;-85
2022/02/13 12:55:12;;;;;;;5.82;3.67;;;12.60;75.50;;;;;;5032829;28;20052;-86
2022/02/13 12:57:41;;;;;;;7.40;3.75;;;12.60;75.80;;;;;;5015764;28;20052;-86
2022/02/13 13:00:26;;;;;;;8.93;4.43;;;12.70;76.70;;;;;;5032932;28;20089;-87